Strona główna
METAR-TAF:

METAR-TAF

Lotnisko :

Port lotniczy Chartum

Chartum, Sudan

Szerokość geograficzna: 15-36N, Długość geograficzna: 032-33E, wysokość: 382 m

Aktualna obserwacja pogody

Raport powstał 17 minut temu, godzina 07:00 UTC
Wiatr 12 kt od południowy zachód
Temperatura 30°C
Wilgotność 43%
Ciśnienie 1014 hPa
Widzialność 10 km lub więcej
Brak chmur poniżej 1500 m i brak chmur cumulonimbus

METAR: HSSS 200700Z 23012KT CAVOK 30/16 Q1014 NOSIG

czas: 10:17 (07:17 UTC)

Prognoza

Raport powstał 2 godziny i 17 minut temu, godzina 05:00 UTC
Prognoza ważna od 20 godzina 06 UTC do 21 godzina 12 UTC
Wiatr 10 kt od południowo-południowy zachód w porywach dochodzący do 20 kt
Widzialność 10 km lub więcej
Przerywane chmury na wysokości 14000 ft
Przejściowo
od 20 godzina 10 UTC do 20 godzina 15 UTC
Widzialność 10 km lub więcej
Mało chmury na wysokości 4000 ft
Rozproszone chmury na wysokości 14000 ft

TAF: HSSS 200500Z 2006/2112 21010G20KT 9999 BKN140 TEMPO 2010/2015 9999 FEW040 SCT140

Obserwacja i prognoza pogody dla ponad 4000 lotnisk (raport METAR i TAF).

Dostępne stacje oznaczono żółtymi i czerwonymi punktami na mapie.

Najedź kursorem aby zobaczyć nazwę stacji.

Kliknij aby zobaczyć obserwacje i prognozy pogody.

Aby zmienić mapę: kliknij na zielony przycisk z czarnym krzyżykiem, aby powiększyć; na zielony przycisk z myślnikiem, aby pomniejszyć; na zielone strzałki, aby przejść do map sąsiednich.


METAR-TAF: